sensor_id;sensor_type;location;lat;lon;timestamp;pressure;altitude;pressure_sealevel;temperature;humidity
70916;BME280;58557;50.982;-3.222;2023-04-26T00:01:39;101055.02;;;9.22;43.57
70916;BME280;58557;50.982;-3.222;2023-04-26T00:04:05;101053.86;;;9.55;43.53
70916;BME280;58557;50.982;-3.222;2023-04-26T00:06:30;101052.42;;;9.45;44.15
70916;BME280;58557;50.982;-3.222;2023-04-26T00:08:55;101063.69;;;9.97;43.30
70916;BME280;58557;50.982;-3.222;2023-04-26T00:11:21;101061.48;;;10.24;42.49
70916;BME280;58557;50.982;-3.222;2023-04-26T00:13:46;101057.25;;;10.93;41.64
70916;BME280;58557;50.982;-3.222;2023-04-26T00:16:13;101048.56;;;11.05;41.14
70916;BME280;58557;50.982;-3.222;2023-04-26T00:18:37;101042.24;;;10.82;41.02
70916;BME280;58557;50.982;-3.222;2023-04-26T00:21:02;101037.72;;;11.05;40.89
70916;BME280;58557;50.982;-3.222;2023-04-26T00:23:28;101046.90;;;10.25;41.91
70916;BME280;58557;50.982;-3.222;2023-04-26T00:25:53;101046.52;;;10.25;42.78
70916;BME280;58557;50.982;-3.222;2023-04-26T00:28:18;101050.41;;;10.54;42.51
70916;BME280;58557;50.982;-3.222;2023-04-26T00:30:44;101048.95;;;9.89;42.90
70916;BME280;58557;50.982;-3.222;2023-04-26T00:33:09;101047.97;;;10.04;43.71
70916;BME280;58557;50.982;-3.222;2023-04-26T00:35:34;101042.11;;;9.61;44.08
70916;BME280;58557;50.982;-3.222;2023-04-26T00:38:00;101038.98;;;9.87;44.20
70916;BME280;58557;50.982;-3.222;2023-04-26T00:40:25;101038.02;;;9.79;43.98
70916;BME280;58557;50.982;-3.222;2023-04-26T00:42:56;101043.33;;;9.37;44.91
70916;BME280;58557;50.982;-3.222;2023-04-26T00:45:16;101041.52;;;10.29;42.79
70916;BME280;58557;50.982;-3.222;2023-04-26T00:47:42;101041.56;;;9.13;44.35
70916;BME280;58557;50.982;-3.222;2023-04-26T00:50:07;101042.55;;;9.45;44.30
70916;BME280;58557;50.982;-3.222;2023-04-26T00:52:32;101039.96;;;10.00;44.02
70916;BME280;58557;50.982;-3.222;2023-04-26T00:54:58;101036.44;;;8.88;46.24
70916;BME280;58557;50.982;-3.222;2023-04-26T00:57:23;101041.89;;;9.18;46.01
70916;BME280;58557;50.982;-3.222;2023-04-26T00:59:48;101042.58;;;8.85;45.67
70916;BME280;58557;50.982;-3.222;2023-04-26T01:02:13;101043.36;;;9.86;44.65
70916;BME280;58557;50.982;-3.222;2023-04-26T01:04:38;101042.47;;;9.47;44.83
70916;BME280;58557;50.982;-3.222;2023-04-26T01:07:03;101044.07;;;9.87;44.09
70916;BME280;58557;50.982;-3.222;2023-04-26T01:09:31;101041.86;;;10.63;42.94
70916;BME280;58557;50.982;-3.222;2023-04-26T01:11:54;101041.30;;;10.17;43.07
70916;BME280;58557;50.982;-3.222;2023-04-26T01:14:19;101037.65;;;10.87;41.90
70916;BME280;58557;50.982;-3.222;2023-04-26T01:16:45;101040.87;;;11.16;41.02
70916;BME280;58557;50.982;-3.222;2023-04-26T01:19:10;101042.66;;;10.84;40.90
70916;BME280;58557;50.982;-3.222;2023-04-26T01:21:35;101045.55;;;10.61;41.84
70916;BME280;58557;50.982;-3.222;2023-04-26T01:24:00;101051.21;;;10.70;42.04
70916;BME280;58557;50.982;-3.222;2023-04-26T01:26:25;101049.66;;;10.53;42.66
70916;BME280;58557;50.982;-3.222;2023-04-26T01:28:51;101048.80;;;10.46;43.50
70916;BME280;58557;50.982;-3.222;2023-04-26T01:31:16;101043.54;;;10.46;43.42
70916;BME280;58557;50.982;-3.222;2023-04-26T01:33:41;101038.04;;;10.89;41.97
70916;BME280;58557;50.982;-3.222;2023-04-26T01:36:08;101040.21;;;10.23;42.55
70916;BME280;58557;50.982;-3.222;2023-04-26T01:38:32;101035.24;;;10.01;43.77
70916;BME280;58557;50.982;-3.222;2023-04-26T01:40:57;101031.85;;;9.57;43.61
70916;BME280;58557;50.982;-3.222;2023-04-26T01:43:23;101032.52;;;10.36;43.38
70916;BME280;58557;50.982;-3.222;2023-04-26T01:45:48;101026.67;;;10.16;42.71
70916;BME280;58557;50.982;-3.222;2023-04-26T01:48:15;101023.25;;;10.37;42.23
70916;BME280;58557;50.982;-3.222;2023-04-26T01:50:40;101020.50;;;9.75;43.42
70916;BME280;58557;50.982;-3.222;2023-04-26T01:53:06;101017.49;;;9.75;43.82
70916;BME280;58557;50.982;-3.222;2023-04-26T01:55:32;101014.27;;;10.03;43.47
70916;BME280;58557;50.982;-3.222;2023-04-26T01:57:57;101008.46;;;9.70;44.00
70916;BME280;58557;50.982;-3.222;2023-04-26T02:00:22;101009.89;;;8.91;46.81
70916;BME280;58557;50.982;-3.222;2023-04-26T02:02:48;101010.85;;;9.27;46.07
70916;BME280;58557;50.982;-3.222;2023-04-26T02:05:14;101007.44;;;9.22;45.05
70916;BME280;58557;50.982;-3.222;2023-04-26T02:07:39;101001.78;;;9.90;44.47
70916;BME280;58557;50.982;-3.222;2023-04-26T02:10:06;101001.37;;;9.08;45.95
70916;BME280;58557;50.982;-3.222;2023-04-26T02:12:30;100999.60;;;8.66;47.27
70916;BME280;58557;50.982;-3.222;2023-04-26T02:14:55;101002.05;;;8.72;47.68
70916;BME280;58557;50.982;-3.222;2023-04-26T02:17:21;101000.00;;;9.08;47.43
70916;BME280;58557;50.982;-3.222;2023-04-26T02:19:46;101004.87;;;9.58;46.40
70916;BME280;58557;50.982;-3.222;2023-04-26T02:22:12;100999.99;;;9.82;46.35
70916;BME280;58557;50.982;-3.222;2023-04-26T02:24:38;100997.54;;;9.47;46.24
70916;BME280;58557;50.982;-3.222;2023-04-26T02:27:04;100991.23;;;10.19;45.76
70916;BME280;58557;50.982;-3.222;2023-04-26T02:29:29;100993.12;;;9.81;46.26
70916;BME280;58557;50.982;-3.222;2023-04-26T02:31:54;100993.59;;;9.19;47.04
70916;BME280;58557;50.982;-3.222;2023-04-26T02:34:19;100990.62;;;8.94;47.92
70916;BME280;58557;50.982;-3.222;2023-04-26T02:36:45;100987.62;;;8.33;48.52
70916;BME280;58557;50.982;-3.222;2023-04-26T02:39:10;100987.89;;;9.20;46.94
70916;BME280;58557;50.982;-3.222;2023-04-26T02:41:36;100987.35;;;9.09;47.44
70916;BME280;58557;50.982;-3.222;2023-04-26T02:44:01;100985.79;;;8.93;48.07
70916;BME280;58557;50.982;-3.222;2023-04-26T02:46:26;100981.51;;;9.35;46.32
70916;BME280;58557;50.982;-3.222;2023-04-26T02:48:52;100977.43;;;9.06;47.27
70916;BME280;58557;50.982;-3.222;2023-04-26T02:51:17;100968.00;;;8.28;49.23
70916;BME280;58557;50.982;-3.222;2023-04-26T02:53:43;100965.94;;;8.82;49.19
70916;BME280;58557;50.982;-3.222;2023-04-26T02:56:08;100966.65;;;8.86;48.85
70916;BME280;58557;50.982;-3.222;2023-04-26T02:58:34;100968.76;;;9.42;47.29
70916;BME280;58557;50.982;-3.222;2023-04-26T03:00:59;100968.12;;;9.14;46.49
70916;BME280;58557;50.982;-3.222;2023-04-26T03:03:25;100958.17;;;10.29;44.70
70916;BME280;58557;50.982;-3.222;2023-04-26T03:05:50;100959.01;;;10.09;44.13
70916;BME280;58557;50.982;-3.222;2023-04-26T03:08:15;100962.14;;;9.36;45.89
70916;BME280;58557;50.982;-3.222;2023-04-26T03:10:43;100961.75;;;9.58;45.48
70916;BME280;58557;50.982;-3.222;2023-04-26T03:13:06;100951.80;;;10.40;44.82
70916;BME280;58557;50.982;-3.222;2023-04-26T03:15:32;100949.76;;;9.64;44.99
70916;BME280;58557;50.982;-3.222;2023-04-26T03:17:57;100947.91;;;9.76;45.15
70916;BME280;58557;50.982;-3.222;2023-04-26T03:20:22;100941.92;;;10.31;44.35
70916;BME280;58557;50.982;-3.222;2023-04-26T03:22:47;100941.07;;;9.62;45.37
70916;BME280;58557;50.982;-3.222;2023-04-26T03:25:12;100934.76;;;9.83;44.13
70916;BME280;58557;50.982;-3.222;2023-04-26T03:27:38;100934.10;;;10.20;44.43
70916;BME280;58557;50.982;-3.222;2023-04-26T03:30:04;100935.52;;;9.45;44.21
70916;BME280;58557;50.982;-3.222;2023-04-26T03:32:28;100931.88;;;10.15;43.00
70916;BME280;58557;50.982;-3.222;2023-04-26T03:34:54;100928.32;;;10.93;43.29
70916;BME280;58557;50.982;-3.222;2023-04-26T03:37:19;100926.22;;;10.45;43.30
70916;BME280;58557;50.982;-3.222;2023-04-26T03:39:44;100922.63;;;10.16;44.35
70916;BME280;58557;50.982;-3.222;2023-04-26T03:42:10;100923.06;;;8.80;46.50
70916;BME280;58557;50.982;-3.222;2023-04-26T03:44:36;100917.82;;;8.63;48.15
70916;BME280;58557;50.982;-3.222;2023-04-26T03:47:01;100919.65;;;8.91;48.20
70916;BME280;58557;50.982;-3.222;2023-04-26T03:49:26;100917.02;;;8.79;47.78
70916;BME280;58557;50.982;-3.222;2023-04-26T03:51:52;100919.73;;;8.74;47.96
70916;BME280;58557;50.982;-3.222;2023-04-26T03:54:17;100915.44;;;8.33;50.86
70916;BME280;58557;50.982;-3.222;2023-04-26T03:56:43;100910.89;;;8.25;50.18
70916;BME280;58557;50.982;-3.222;2023-04-26T03:59:07;100906.89;;;8.18;51.98
70916;BME280;58557;50.982;-3.222;2023-04-26T04:01:33;100902.77;;;8.04;51.03
70916;BME280;58557;50.982;-3.222;2023-04-26T04:03:58;100901.94;;;9.19;49.29
70916;BME280;58557;50.982;-3.222;2023-04-26T04:06:24;100898.93;;;9.62;47.61
70916;BME280;58557;50.982;-3.222;2023-04-26T04:08:50;100892.47;;;10.24;46.84
70916;BME280;58557;50.982;-3.222;2023-04-26T04:11:15;100901.40;;;9.46;47.00
70916;BME280;58557;50.982;-3.222;2023-04-26T04:13:41;100901.88;;;9.37;47.59
70916;BME280;58557;50.982;-3.222;2023-04-26T04:16:07;100902.55;;;9.06;47.96
70916;BME280;58557;50.982;-3.222;2023-04-26T04:18:32;100902.30;;;9.79;47.63
70916;BME280;58557;50.982;-3.222;2023-04-26T04:20:57;100897.30;;;10.16;46.04
70916;BME280;58557;50.982;-3.222;2023-04-26T04:23:23;100893.88;;;9.85;46.65
70916;BME280;58557;50.982;-3.222;2023-04-26T04:25:48;100895.91;;;9.98;46.96
70916;BME280;58557;50.982;-3.222;2023-04-26T04:28:14;100902.55;;;9.64;47.27
70916;BME280;58557;50.982;-3.222;2023-04-26T04:30:40;100904.13;;;9.30;47.66
70916;BME280;58557;50.982;-3.222;2023-04-26T04:33:05;100902.73;;;9.31;48.50
70916;BME280;58557;50.982;-3.222;2023-04-26T04:35:30;100900.52;;;9.16;48.16
70916;BME280;58557;50.982;-3.222;2023-04-26T04:37:56;100906.86;;;9.09;49.48
70916;BME280;58557;50.982;-3.222;2023-04-26T04:40:21;100903.75;;;8.68;50.90
70916;BME280;58557;50.982;-3.222;2023-04-26T04:42:46;100907.54;;;8.79;50.48
70916;BME280;58557;50.982;-3.222;2023-04-26T04:45:12;100904.59;;;8.98;49.56
70916;BME280;58557;50.982;-3.222;2023-04-26T04:47:37;100904.05;;;8.65;50.50
70916;BME280;58557;50.982;-3.222;2023-04-26T04:50:03;100902.96;;;9.00;50.97
70916;BME280;58557;50.982;-3.222;2023-04-26T04:52:28;100895.14;;;9.36;49.31
70916;BME280;58557;50.982;-3.222;2023-04-26T04:54:53;100896.32;;;9.66;49.10
70916;BME280;58557;50.982;-3.222;2023-04-26T04:57:19;100887.36;;;10.05;47.50
70916;BME280;58557;50.982;-3.222;2023-04-26T04:59:45;100890.73;;;10.64;45.42
70916;BME280;58557;50.982;-3.222;2023-04-26T05:02:10;100889.91;;;10.77;44.88
70916;BME280;58557;50.982;-3.222;2023-04-26T05:04:35;100893.96;;;11.15;44.36
70916;BME280;58557;50.982;-3.222;2023-04-26T05:07:01;100891.24;;;10.38;44.71
70916;BME280;58557;50.982;-3.222;2023-04-26T05:09:26;100891.32;;;11.27;43.11
70916;BME280;58557;50.982;-3.222;2023-04-26T05:11:52;100893.67;;;11.66;42.08
70916;BME280;58557;50.982;-3.222;2023-04-26T05:14:17;100895.56;;;11.93;41.82
70916;BME280;58557;50.982;-3.222;2023-04-26T05:19:08;100892.72;;;11.79;41.61
70916;BME280;58557;50.982;-3.222;2023-04-26T05:21:33;100892.14;;;11.46;41.30
70916;BME280;58557;50.982;-3.222;2023-04-26T05:23:58;100888.05;;;11.91;41.57
70916;BME280;58557;50.982;-3.222;2023-04-26T05:26:23;100889.53;;;10.47;43.76
70916;BME280;58557;50.982;-3.222;2023-04-26T05:28:49;100889.10;;;10.07;45.20
70916;BME280;58557;50.982;-3.222;2023-04-26T05:31:15;100887.00;;;9.67;47.12
70916;BME280;58557;50.982;-3.222;2023-04-26T05:33:40;100879.29;;;9.83;47.30
70916;BME280;58557;50.982;-3.222;2023-04-26T05:36:06;100879.18;;;9.92;47.02
70916;BME280;58557;50.982;-3.222;2023-04-26T05:38:31;100882.17;;;9.45;48.96
70916;BME280;58557;50.982;-3.222;2023-04-26T05:40:56;100886.57;;;8.71;50.39
70916;BME280;58557;50.982;-3.222;2023-04-26T05:43:21;100888.90;;;8.94;51.17
70916;BME280;58557;50.982;-3.222;2023-04-26T05:45:51;100882.68;;;9.89;49.00
70916;BME280;58557;50.982;-3.222;2023-04-26T05:48:12;100886.38;;;8.67;51.05
70916;BME280;58557;50.982;-3.222;2023-04-26T05:50:37;100886.38;;;8.62;51.82
70916;BME280;58557;50.982;-3.222;2023-04-26T05:53:03;100881.84;;;8.51;52.36
70916;BME280;58557;50.982;-3.222;2023-04-26T05:55:28;100882.11;;;9.15;51.56
70916;BME280;58557;50.982;-3.222;2023-04-26T05:57:54;100879.23;;;9.52;50.08
70916;BME280;58557;50.982;-3.222;2023-04-26T06:00:20;100877.50;;;10.02;48.39
70916;BME280;58557;50.982;-3.222;2023-04-26T06:02:45;100879.52;;;9.34;50.55
70916;BME280;58557;50.982;-3.222;2023-04-26T06:05:10;100874.02;;;9.39;50.91
70916;BME280;58557;50.982;-3.222;2023-04-26T06:07:36;100871.94;;;9.66;49.98
70916;BME280;58557;50.982;-3.222;2023-04-26T06:10:01;100872.51;;;9.62;49.95
70916;BME280;58557;50.982;-3.222;2023-04-26T06:12:27;100876.04;;;10.15;49.39
70916;BME280;58557;50.982;-3.222;2023-04-26T06:14:52;100878.08;;;10.39;47.60
70916;BME280;58557;50.982;-3.222;2023-04-26T06:17:18;100885.81;;;10.26;47.57
70916;BME280;58557;50.982;-3.222;2023-04-26T06:19:44;100888.82;;;10.36;47.13
70916;BME280;58557;50.982;-3.222;2023-04-26T06:22:09;100882.67;;;10.60;47.71
70916;BME280;58557;50.982;-3.222;2023-04-26T06:24:34;100877.86;;;10.74;46.38
70916;BME280;58557;50.982;-3.222;2023-04-26T06:27:00;100875.85;;;11.26;45.53
70916;BME280;58557;50.982;-3.222;2023-04-26T06:29:25;100879.73;;;10.14;47.53
70916;BME280;58557;50.982;-3.222;2023-04-26T06:31:51;100883.00;;;10.00;47.42
70916;BME280;58557;50.982;-3.222;2023-04-26T06:34:16;100887.09;;;10.07;48.98
70916;BME280;58557;50.982;-3.222;2023-04-26T06:36:41;100888.60;;;10.74;47.74
70916;BME280;58557;50.982;-3.222;2023-04-26T06:39:07;100884.44;;;11.24;46.22
70916;BME280;58557;50.982;-3.222;2023-04-26T06:41:33;100887.42;;;10.79;45.70
70916;BME280;58557;50.982;-3.222;2023-04-26T06:43:58;100890.37;;;9.73;49.36
70916;BME280;58557;50.982;-3.222;2023-04-26T06:46:24;100891.92;;;9.97;49.15
70916;BME280;58557;50.982;-3.222;2023-04-26T06:48:52;100885.73;;;9.83;50.10
70916;BME280;58557;50.982;-3.222;2023-04-26T06:51:14;100884.86;;;9.63;50.22
70916;BME280;58557;50.982;-3.222;2023-04-26T06:53:40;100891.59;;;9.05;52.75
70916;BME280;58557;50.982;-3.222;2023-04-26T06:56:06;100896.04;;;8.90;54.15
70916;BME280;58557;50.982;-3.222;2023-04-26T06:58:32;100893.43;;;9.72;52.12
70916;BME280;58557;50.982;-3.222;2023-04-26T07:00:57;100892.98;;;10.81;48.30
70916;BME280;58557;50.982;-3.222;2023-04-26T07:03:22;100891.55;;;10.44;48.58
70916;BME280;58557;50.982;-3.222;2023-04-26T07:05:48;100888.66;;;9.87;50.66
70916;BME280;58557;50.982;-3.222;2023-04-26T07:08:12;100891.57;;;9.29;52.29
70916;BME280;58557;50.982;-3.222;2023-04-26T07:10:38;100897.13;;;9.38;53.69
70916;BME280;58557;50.982;-3.222;2023-04-26T07:13:03;100885.64;;;9.86;52.31
70916;BME280;58557;50.982;-3.222;2023-04-26T07:15:29;100890.68;;;9.29;52.69
70916;BME280;58557;50.982;-3.222;2023-04-26T07:17:54;100886.83;;;9.93;51.08
70916;BME280;58557;50.982;-3.222;2023-04-26T07:20:20;100888.01;;;10.52;49.60
70916;BME280;58557;50.982;-3.222;2023-04-26T07:22:45;100887.09;;;10.92;49.42
70916;BME280;58557;50.982;-3.222;2023-04-26T07:25:10;100884.71;;;11.36;48.85
70916;BME280;58557;50.982;-3.222;2023-04-26T07:27:35;100885.09;;;11.37;47.29
70916;BME280;58557;50.982;-3.222;2023-04-26T07:30:00;100886.67;;;10.76;48.08
70916;BME280;58557;50.982;-3.222;2023-04-26T07:32:25;100888.63;;;11.02;48.25
70916;BME280;58557;50.982;-3.222;2023-04-26T07:34:51;100892.67;;;10.47;49.18
70916;BME280;58557;50.982;-3.222;2023-04-26T07:37:16;100894.50;;;10.47;50.33
70916;BME280;58557;50.982;-3.222;2023-04-26T07:39:41;100894.73;;;10.06;50.63
70916;BME280;58557;50.982;-3.222;2023-04-26T07:42:07;100894.83;;;11.38;48.33
70916;BME280;58557;50.982;-3.222;2023-04-26T07:44:32;100891.72;;;10.40;48.96
70916;BME280;58557;50.982;-3.222;2023-04-26T07:46:57;100892.98;;;11.62;47.59
70916;BME280;58557;50.982;-3.222;2023-04-26T07:49:22;100892.58;;;11.05;49.37
70916;BME280;58557;50.982;-3.222;2023-04-26T07:51:48;100888.94;;;11.05;48.92
70916;BME280;58557;50.982;-3.222;2023-04-26T07:54:13;100886.55;;;11.34;49.22
70916;BME280;58557;50.982;-3.222;2023-04-26T07:56:38;100887.72;;;11.28;49.19
70916;BME280;58557;50.982;-3.222;2023-04-26T07:59:03;100890.17;;;10.50;52.09
70916;BME280;58557;50.982;-3.222;2023-04-26T08:01:28;100891.00;;;10.73;51.23
70916;BME280;58557;50.982;-3.222;2023-04-26T08:03:53;100895.65;;;10.32;51.63
70916;BME280;58557;50.982;-3.222;2023-04-26T08:06:19;100897.80;;;11.24;50.02
70916;BME280;58557;50.982;-3.222;2023-04-26T08:08:44;100899.41;;;10.60;52.28
70916;BME280;58557;50.982;-3.222;2023-04-26T08:11:09;100896.02;;;10.39;53.22
70916;BME280;58557;50.982;-3.222;2023-04-26T08:13:34;100893.84;;;10.47;54.32
70916;BME280;58557;50.982;-3.222;2023-04-26T08:16:00;100900.53;;;9.94;56.38
70916;BME280;58557;50.982;-3.222;2023-04-26T08:18:26;100899.50;;;9.45;58.84
70916;BME280;58557;50.982;-3.222;2023-04-26T08:20:51;100895.74;;;10.01;56.20
70916;BME280;58557;50.982;-3.222;2023-04-26T08:23:17;100895.25;;;11.14;53.65
70916;BME280;58557;50.982;-3.222;2023-04-26T08:25:43;100898.84;;;10.12;55.31
70916;BME280;58557;50.982;-3.222;2023-04-26T08:28:08;100904.47;;;9.45;58.15
70916;BME280;58557;50.982;-3.222;2023-04-26T08:30:34;100899.58;;;10.03;57.49
70916;BME280;58557;50.982;-3.222;2023-04-26T08:32:59;100898.07;;;11.80;53.25
70916;BME280;58557;50.982;-3.222;2023-04-26T08:35:25;100898.44;;;11.25;52.82
70916;BME280;58557;50.982;-3.222;2023-04-26T08:37:50;100897.92;;;12.52;50.00
70916;BME280;58557;50.982;-3.222;2023-04-26T08:40:21;100894.27;;;11.91;50.22
70916;BME280;58557;50.982;-3.222;2023-04-26T08:42:41;100893.64;;;11.60;51.18
70916;BME280;58557;50.982;-3.222;2023-04-26T08:45:07;100892.71;;;11.96;51.67
70916;BME280;58557;50.982;-3.222;2023-04-26T08:47:39;100892.84;;;11.07;55.20
70916;BME280;58557;50.982;-3.222;2023-04-26T08:49:57;100891.18;;;10.08;57.61
70916;BME280;58557;50.982;-3.222;2023-04-26T08:52:27;100896.65;;;9.74;60.17
70916;BME280;58557;50.982;-3.222;2023-04-26T08:54:50;100896.08;;;10.94;57.68
70916;BME280;58557;50.982;-3.222;2023-04-26T08:57:15;100891.97;;;11.35;54.38
70916;BME280;58557;50.982;-3.222;2023-04-26T08:59:41;100894.76;;;10.15;57.91
70916;BME280;58557;50.982;-3.222;2023-04-26T09:02:06;100894.68;;;10.65;57.62
70916;BME280;58557;50.982;-3.222;2023-04-26T09:04:32;100896.44;;;11.18;55.27
70916;BME280;58557;50.982;-3.222;2023-04-26T09:07:01;100897.71;;;11.18;55.71
70916;BME280;58557;50.982;-3.222;2023-04-26T09:09:23;100898.15;;;11.03;56.75
70916;BME280;58557;50.982;-3.222;2023-04-26T09:11:53;100899.37;;;10.86;55.23
70916;BME280;58557;50.982;-3.222;2023-04-26T09:14:14;100895.75;;;11.52;53.66
70916;BME280;58557;50.982;-3.222;2023-04-26T09:16:40;100890.71;;;11.63;54.03
70916;BME280;58557;50.982;-3.222;2023-04-26T09:19:05;100890.05;;;11.88;54.33
70916;BME280;58557;50.982;-3.222;2023-04-26T09:21:31;100887.58;;;12.22;52.99
70916;BME280;58557;50.982;-3.222;2023-04-26T09:23:57;100889.97;;;12.00;52.11
70916;BME280;58557;50.982;-3.222;2023-04-26T09:26:22;100892.47;;;10.46;56.61
70916;BME280;58557;50.982;-3.222;2023-04-26T09:28:47;100895.54;;;11.25;55.76
70916;BME280;58557;50.982;-3.222;2023-04-26T09:31:34;100892.33;;;11.00;56.58
70916;BME280;58557;50.982;-3.222;2023-04-26T09:36:10;100893.95;;;11.86;54.82
70916;BME280;58557;50.982;-3.222;2023-04-26T09:40:55;100895.59;;;12.39;51.12
70916;BME280;58557;50.982;-3.222;2023-04-26T09:43:21;100895.60;;;12.22;52.64
70916;BME280;58557;50.982;-3.222;2023-04-26T09:45:47;100895.90;;;12.31;52.41
70916;BME280;58557;50.982;-3.222;2023-04-26T09:48:16;100895.80;;;11.46;54.05
70916;BME280;58557;50.982;-3.222;2023-04-26T09:50:37;100896.79;;;12.58;52.41
70916;BME280;58557;50.982;-3.222;2023-04-26T09:53:02;100897.80;;;12.54;51.82
70916;BME280;58557;50.982;-3.222;2023-04-26T09:55:29;100897.28;;;12.82;52.81
70916;BME280;58557;50.982;-3.222;2023-04-26T09:57:53;100898.56;;;12.51;53.59
70916;BME280;58557;50.982;-3.222;2023-04-26T10:00:19;100897.25;;;11.44;55.52
70916;BME280;58557;50.982;-3.222;2023-04-26T10:02:44;100897.47;;;11.23;57.17
70916;BME280;58557;50.982;-3.222;2023-04-26T10:05:09;100893.86;;;11.12;58.25
70916;BME280;58557;50.982;-3.222;2023-04-26T10:07:35;100891.14;;;11.72;56.04
70916;BME280;58557;50.982;-3.222;2023-04-26T10:10:01;100894.85;;;11.47;57.56
70916;BME280;58557;50.982;-3.222;2023-04-26T10:12:27;100890.70;;;12.32;55.29
70916;BME280;58557;50.982;-3.222;2023-04-26T10:14:52;100892.76;;;13.09;52.44
70916;BME280;58557;50.982;-3.222;2023-04-26T10:17:18;100892.18;;;12.84;51.65
70916;BME280;58557;50.982;-3.222;2023-04-26T10:19:43;100892.95;;;13.16;52.78
70916;BME280;58557;50.982;-3.222;2023-04-26T10:22:13;100891.81;;;12.42;53.29
70916;BME280;58557;50.982;-3.222;2023-04-26T10:24:34;100885.94;;;12.58;53.12
70916;BME280;58557;50.982;-3.222;2023-04-26T10:26:59;100881.92;;;12.49;54.15
70916;BME280;58557;50.982;-3.222;2023-04-26T10:30:03;100882.97;;;12.82;52.68
70916;BME280;58557;50.982;-3.222;2023-04-26T10:32:05;100877.87;;;11.93;54.58
70916;BME280;58557;50.982;-3.222;2023-04-26T10:34:18;100880.49;;;11.63;56.73
70916;BME280;58557;50.982;-3.222;2023-04-26T10:39:17;100883.75;;;13.62;51.72
70916;BME280;58557;50.982;-3.222;2023-04-26T10:41:34;100883.43;;;13.28;51.57
70916;BME280;58557;50.982;-3.222;2023-04-26T10:43:59;100879.36;;;13.48;50.65
70916;BME280;58557;50.982;-3.222;2023-04-26T10:46:33;100875.94;;;13.87;49.67
70916;BME280;58557;50.982;-3.222;2023-04-26T10:48:48;100875.71;;;13.92;50.45
70916;BME280;58557;50.982;-3.222;2023-04-26T10:51:14;100875.25;;;14.07;49.46
70916;BME280;58557;50.982;-3.222;2023-04-26T10:56:05;100881.88;;;13.98;48.93
70916;BME280;58557;50.982;-3.222;2023-04-26T10:58:31;100875.53;;;14.48;48.52
70916;BME280;58557;50.982;-3.222;2023-04-26T11:01:04;100879.94;;;13.94;48.28
70916;BME280;58557;50.982;-3.222;2023-04-26T11:03:22;100876.21;;;14.36;47.85
70916;BME280;58557;50.982;-3.222;2023-04-26T11:05:51;100874.86;;;14.24;47.65
70916;BME280;58557;50.982;-3.222;2023-04-26T11:08:16;100870.94;;;14.17;48.42
70916;BME280;58557;50.982;-3.222;2023-04-26T11:10:37;100881.99;;;13.62;49.30
70916;BME280;58557;50.982;-3.222;2023-04-26T11:13:03;100881.49;;;14.18;48.48
70916;BME280;58557;50.982;-3.222;2023-04-26T11:15:30;100877.04;;;14.55;49.50
70916;BME280;58557;50.982;-3.222;2023-04-26T11:17:54;100875.46;;;14.71;47.04
70916;BME280;58557;50.982;-3.222;2023-04-26T11:20:20;100873.83;;;15.18;46.74
70916;BME280;58557;50.982;-3.222;2023-04-26T11:22:45;100867.31;;;15.28;46.67
70916;BME280;58557;50.982;-3.222;2023-04-26T11:25:11;100860.78;;;15.05;47.55
70916;BME280;58557;50.982;-3.222;2023-04-26T11:27:37;100858.03;;;15.18;46.52
70916;BME280;58557;50.982;-3.222;2023-04-26T11:30:03;100856.03;;;15.71;45.82
70916;BME280;58557;50.982;-3.222;2023-04-26T11:32:27;100856.31;;;15.07;46.86
70916;BME280;58557;50.982;-3.222;2023-04-26T11:34:53;100855.31;;;16.40;44.97
70916;BME280;58557;50.982;-3.222;2023-04-26T11:37:19;100855.55;;;15.69;45.21
70916;BME280;58557;50.982;-3.222;2023-04-26T11:39:44;100849.02;;;15.33;45.55
70916;BME280;58557;50.982;-3.222;2023-04-26T11:42:10;100844.54;;;15.08;46.99
70916;BME280;58557;50.982;-3.222;2023-04-26T11:44:35;100844.08;;;16.31;43.54
70916;BME280;58557;50.982;-3.222;2023-04-26T11:47:00;100845.44;;;15.70;44.07
70916;BME280;58557;50.982;-3.222;2023-04-26T11:49:26;100841.45;;;16.17;44.76
70916;BME280;58557;50.982;-3.222;2023-04-26T11:51:51;100843.13;;;15.48;44.78
70916;BME280;58557;50.982;-3.222;2023-04-26T11:54:27;100839.72;;;15.22;45.45
70916;BME280;58557;50.982;-3.222;2023-04-26T11:56:42;100837.56;;;14.31;47.18
70916;BME280;58557;50.982;-3.222;2023-04-26T11:59:08;100834.26;;;14.43;47.84
70916;BME280;58557;50.982;-3.222;2023-04-26T12:01:34;100829.81;;;15.55;46.19
70916;BME280;58557;50.982;-3.222;2023-04-26T12:03:59;100831.63;;;15.31;45.40
70916;BME280;58557;50.982;-3.222;2023-04-26T12:06:29;100840.52;;;15.64;44.83
70916;BME280;58557;50.982;-3.222;2023-04-26T12:08:50;100841.49;;;15.30;46.61
70916;BME280;58557;50.982;-3.222;2023-04-26T12:11:16;100845.63;;;15.43;46.86
70916;BME280;58557;50.982;-3.222;2023-04-26T12:13:41;100845.55;;;15.38;45.56
70916;BME280;58557;50.982;-3.222;2023-04-26T12:16:07;100843.54;;;15.41;45.03
70916;BME280;58557;50.982;-3.222;2023-04-26T12:18:31;100846.59;;;14.45;46.22
70916;BME280;58557;50.982;-3.222;2023-04-26T12:20:57;100842.02;;;14.49;46.14
70916;BME280;58557;50.982;-3.222;2023-04-26T12:23:22;100843.24;;;15.18;45.85
70916;BME280;58557;50.982;-3.222;2023-04-26T12:25:52;100849.22;;;15.15;45.65
70916;BME280;58557;50.982;-3.222;2023-04-26T12:28:13;100846.45;;;14.70;46.23
70916;BME280;58557;50.982;-3.222;2023-04-26T12:30:39;100842.89;;;15.05;45.16
70916;BME280;58557;50.982;-3.222;2023-04-26T12:33:04;100842.04;;;15.84;44.94
70916;BME280;58557;50.982;-3.222;2023-04-26T12:35:30;100840.69;;;15.70;43.54
70916;BME280;58557;50.982;-3.222;2023-04-26T12:37:55;100843.45;;;15.37;44.30
70916;BME280;58557;50.982;-3.222;2023-04-26T12:40:21;100840.86;;;15.23;45.21
70916;BME280;58557;50.982;-3.222;2023-04-26T12:42:47;100837.62;;;15.41;45.78
70916;BME280;58557;50.982;-3.222;2023-04-26T12:45:12;100833.68;;;13.89;48.27